Time;durP1;ratioP1;P1;durP2;ratioP2;P2;SDS_P1;SDS_P2;PMS_P1;PMS_P2;Temp;Humidity;BMP_temperature;BMP_pressure;BME280_temperature;BME280_humidity;BME280_pressure;Samples;Min_cycle;Max_cycle;Signal;HPM_P1;HPM_P2
2022/08/30 00:01:05;;;;;;;;;;;;;;;21.50;100.00;97546.50;5036054;28;19916;-81
2022/08/30 00:03:41;;;;;;;;;;;;;;;21.47;100.00;97535.13;5032917;28;19909;-81
2022/08/30 00:06:08;;;;;;;;;;;;;;;21.41;100.00;97533.03;5036512;28;19913;-81
2022/08/30 00:08:34;;;;;;;;;;;;;;;21.47;100.00;97526.94;5033098;28;19909;-82
2022/08/30 00:11:00;;;;;;;;;;;;;;;21.49;100.00;97531.22;5036415;28;19928;-82
2022/08/30 00:13:25;;;;;;;;;;;;;;;21.50;100.00;97537.50;5036086;28;19943;-81
2022/08/30 00:15:51;;;;;;;;;;;;;;;21.50;100.00;97540.22;5036152;28;20281;-82
2022/08/30 00:18:17;;;;;;;;;;;;;;;21.57;100.00;97544.00;5034578;28;19935;-82
2022/08/30 00:20:42;;;;;;;;;;;;;;;21.60;100.00;97557.28;5053048;28;19952;-81
2022/08/30 00:23:08;;;;;;;;;;;;;;;21.59;100.00;97558.31;5035836;28;20312;-82
2022/08/30 00:25:33;;;;;;;;;;;;;;;21.58;100.00;97562.91;5036134;28;19909;-82
2022/08/30 00:27:59;;;;;;;;;;;;;;;21.67;100.00;97561.06;5033242;28;19920;-82
2022/08/30 00:30:24;;;;;;;;;;;;;;;21.67;100.00;97566.50;5036182;28;19928;-82
2022/08/30 00:32:49;;;;;;;;;;;;;;;21.68;100.00;97573.66;5052518;28;19913;-82
2022/08/30 00:35:16;;;;;;;;;;;;;;;21.67;100.00;97577.41;5036296;28;19924;-82
2022/08/30 00:37:41;;;;;;;;;;;;;;;21.60;100.00;97581.78;5035791;28;19923;-82
2022/08/30 00:40:08;;;;;;;;;;;;;;;21.67;100.00;97580.13;5035203;28;19912;-82
2022/08/30 00:42:33;;;;;;;;;;;;;;;21.61;100.00;97573.47;5035139;28;19912;-82
2022/08/30 00:44:59;;;;;;;;;;;;;;;21.65;100.00;97573.13;5035549;28;19931;-82
2022/08/30 00:47:24;;;;;;;;;;;;;;;21.51;100.00;97570.00;5035693;28;19920;-80
2022/08/30 00:49:51;;;;;;;;;;;;;;;21.57;100.00;97571.22;5035144;28;20688;-81
2022/08/30 00:52:16;;;;;;;;;;;;;;;21.56;100.00;97569.53;5035178;28;19932;-82
2022/08/30 00:54:43;;;;;;;;;;;;;;;21.63;100.00;97570.56;5035284;28;19920;-81
2022/08/30 00:57:09;;;;;;;;;;;;;;;21.64;100.00;97569.56;5035230;28;19913;-82
2022/08/30 00:59:34;;;;;;;;;;;;;;;21.60;100.00;97557.28;5035461;28;19919;-82
2022/08/30 01:02:00;;;;;;;;;;;;;;;21.62;100.00;97568.88;5037153;28;20292;-81
2022/08/30 01:04:26;;;;;;;;;;;;;;;21.62;100.00;97566.16;5038800;28;19912;-82
2022/08/30 01:06:51;;;;;;;;;;;;;;;21.65;100.00;97562.25;5035910;28;20304;-82
2022/08/30 01:09:17;;;;;;;;;;;;;;;21.73;100.00;97565.00;5038071;28;19921;-82
2022/08/30 01:11:42;;;;;;;;;;;;;;;21.68;100.00;97562.78;5038805;28;19913;-81
2022/08/30 01:14:08;;;;;;;;;;;;;;;21.68;100.00;97557.31;5039351;28;19916;-82
2022/08/30 01:16:34;;;;;;;;;;;;;;;21.59;100.00;97558.31;5038577;28;19931;-82
2022/08/30 01:18:59;;;;;;;;;;;;;;;21.61;100.00;97564.44;5035787;28;19917;-80
2022/08/30 01:21:28;;;;;;;;;;;;;;;21.60;100.00;97554.56;5055273;28;19916;-80
2022/08/30 01:23:54;;;;;;;;;;;;;;;21.55;100.00;97551.47;5054415;28;19917;-80
2022/08/30 01:26:20;;;;;;;;;;;;;;;21.47;100.00;97551.44;5038525;28;19909;-81
2022/08/30 01:28:47;;;;;;;;;;;;;;;21.45;100.00;97556.19;5055507;28;20293;-81
2022/08/30 01:31:12;;;;;;;;;;;;;;;21.46;100.00;97553.31;5035564;28;20361;-82
2022/08/30 01:33:39;;;;;;;;;;;;;;;21.39;100.00;97554.09;5038281;28;19999;-82
2022/08/30 01:36:05;;;;;;;;;;;;;;;21.31;100.00;97554.94;5035109;28;20391;-81
2022/08/30 01:38:35;;;;;;;;;;;;;;;21.38;100.00;97555.97;5038360;28;19963;-80
2022/08/30 01:41:27;;;;;;;;;;;;;;;21.36;100.00;97557.16;5037318;28;19915;-81
2022/08/30 01:43:54;;;;;;;;;;;;;;;21.36;100.00;97563.47;5048334;28;19912;-81
2022/08/30 01:46:21;;;;;;;;;;;;;;;21.30;100.00;97563.25;5037299;28;20232;-81
2022/08/30 01:48:46;;;;;;;;;;;;;;;21.26;100.00;97561.84;5037431;28;20368;-80
2022/08/30 01:51:12;;;;;;;;;;;;;;;21.21;100.00;97558.78;5037217;28;19962;-82
2022/08/30 01:53:38;;;;;;;;;;;;;;;21.22;100.00;97563.22;5036978;28;20046;-80
2022/08/30 01:56:04;;;;;;;;;;;;;;;21.17;100.00;97557.38;5055708;28;19983;-81
2022/08/30 01:58:30;;;;;;;;;;;;;;;21.27;100.00;97569.00;5037162;28;19943;-82
2022/08/30 02:00:55;;;;;;;;;;;;;;;21.15;100.00;97559.41;5037865;28;19947;-81
2022/08/30 02:03:21;;;;;;;;;;;;;;;21.13;100.00;97558.72;5037952;28;19962;-80
2022/08/30 02:05:47;;;;;;;;;;;;;;;21.10;100.00;97559.06;5034942;28;20316;-81
2022/08/30 02:08:12;;;;;;;;;;;;;;;21.01;100.00;97558.94;5038102;28;19909;-81
2022/08/30 02:10:38;;;;;;;;;;;;;;;21.02;100.00;97554.38;5037541;28;19917;-82
2022/08/30 02:13:03;;;;;;;;;;;;;;;20.87;100.00;97551.38;5037420;28;20024;-81
2022/08/30 02:15:29;;;;;;;;;;;;;;;20.86;100.00;97554.25;5037291;28;19964;-81
2022/08/30 02:17:54;;;;;;;;;;;;;;;20.88;100.00;97557.69;5037909;28;20323;-81
2022/08/30 02:20:19;;;;;;;;;;;;;;;20.82;100.00;97559.16;5037524;28;19913;-81
2022/08/30 02:22:46;;;;;;;;;;;;;;;20.84;100.00;97565.28;5054592;28;19944;-81
2022/08/30 02:25:12;;;;;;;;;;;;;;;20.85;100.00;97564.28;5038035;28;20343;-81
2022/08/30 02:27:37;;;;;;;;;;;;;;;20.82;100.00;97552.88;5035563;28;19919;-81
2022/08/30 02:30:04;;;;;;;;;;;;;;;20.83;100.00;97554.56;5052640;28;19913;-81
2022/08/30 02:32:29;;;;;;;;;;;;;;;20.82;100.00;97561.03;5035505;28;19913;-82
2022/08/30 02:34:55;;;;;;;;;;;;;;;20.85;100.00;97550.69;5036084;28;19913;-83
2022/08/30 02:37:20;;;;;;;;;;;;;;;20.90;100.00;97548.34;5036276;28;19916;-82
2022/08/30 02:39:46;;;;;;;;;;;;;;;20.94;100.00;97562.47;5052511;28;19963;-82
2022/08/30 02:42:11;;;;;;;;;;;;;;;20.85;100.00;97564.28;5036935;28;19935;-82
2022/08/30 02:44:36;;;;;;;;;;;;;;;20.88;100.00;97569.41;5036272;28;20027;-83
2022/08/30 02:47:02;;;;;;;;;;;;;;;20.92;100.00;97565.34;5035031;28;19909;-82
2022/08/30 02:49:27;;;;;;;;;;;;;;;20.96;100.00;97564.03;5038455;28;19978;-82
2022/08/30 02:51:53;;;;;;;;;;;;;;;20.84;100.00;97568.00;5037079;28;19913;-81
2022/08/30 02:54:18;;;;;;;;;;;;;;;20.96;100.00;97571.31;5054747;28;20377;-82
2022/08/30 02:56:47;;;;;;;;;;;;;;;20.90;100.00;97578.25;5056050;28;19924;-82
2022/08/30 02:59:13;;;;;;;;;;;;;;;20.86;100.00;97567.84;5038343;28;20338;-82
2022/08/30 03:01:38;;;;;;;;;;;;;;;20.84;100.00;97572.59;5037554;28;20062;-82
2022/08/30 03:04:04;;;;;;;;;;;;;;;20.88;100.00;97574.84;5037899;28;19913;-82
2022/08/30 03:06:30;;;;;;;;;;;;;;;20.96;100.00;97565.88;5037521;28;19916;-81
2022/08/30 03:08:55;;;;;;;;;;;;;;;20.94;100.00;97568.78;5036184;28;20290;-82
2022/08/30 03:11:21;;;;;;;;;;;;;;;20.95;100.00;97565.03;5037175;28;19919;-81
2022/08/30 03:13:46;;;;;;;;;;;;;;;21.01;100.00;97574.44;5053994;28;19909;-82
2022/08/30 03:16:12;;;;;;;;;;;;;;;20.99;100.00;97571.84;5037574;28;19980;-82
2022/08/30 03:18:37;;;;;;;;;;;;;;;20.98;100.00;97581.03;5037445;28;19931;-82
2022/08/30 03:21:13;;;;;;;;;;;;;;;20.90;100.00;97582.84;5037407;28;19916;-82
2022/08/30 03:23:39;;;;;;;;;;;;;;;20.93;100.00;97572.50;5035961;28;20331;-82
2022/08/30 03:26:05;;;;;;;;;;;;;;;20.97;100.00;97573.03;5035910;28;20432;-82
2022/08/30 03:28:31;;;;;;;;;;;;;;;20.97;100.00;97576.63;5036988;28;20438;-82
2022/08/30 03:30:56;;;;;;;;;;;;;;;20.98;100.00;97580.16;5036581;28;19913;-82
2022/08/30 03:33:21;;;;;;;;;;;;;;;20.92;100.00;97584.38;5036745;28;19912;-82
2022/08/30 03:35:48;;;;;;;;;;;;;;;20.98;100.00;97582.88;5035822;28;19909;-82
2022/08/30 03:38:14;;;;;;;;;;;;;;;20.94;100.00;97590.53;5036837;28;20058;-81
2022/08/30 03:40:39;;;;;;;;;;;;;;;20.90;100.00;97591.84;5033712;28;19941;-81
2022/08/30 03:43:05;;;;;;;;;;;;;;;20.83;100.00;97593.47;5036126;28;19912;-81
2022/08/30 03:45:30;;;;;;;;;;;;;;;20.77;100.00;97594.13;5053334;28;19948;-81
2022/08/30 03:47:55;;;;;;;;;;;;;;;20.76;100.00;97597.88;5036809;28;19908;-81
2022/08/30 03:50:21;;;;;;;;;;;;;;;20.75;100.00;97598.00;5034000;28;19913;-81
2022/08/30 03:52:46;;;;;;;;;;;;;;;20.76;100.00;97603.31;5053828;28;19966;-81
2022/08/30 03:55:12;;;;;;;;;;;;;;;20.76;100.00;97614.19;5033469;28;20320;-82
2022/08/30 03:57:40;;;;;;;;;;;;;;;20.79;100.00;97613.00;5036660;28;19939;-82
2022/08/30 04:00:06;;;;;;;;;;;;;;;20.71;100.00;97612.91;5035746;28;19917;-83
2022/08/30 04:02:31;;;;;;;;;;;;;;;20.69;100.00;97615.81;5036609;28;20006;-83
2022/08/30 04:04:57;;;;;;;;;;;;;;;20.75;100.00;97611.59;5036443;28;19959;-82
2022/08/30 04:07:22;;;;;;;;;;;;;;;20.81;100.00;97613.69;5036407;28;19920;-83
2022/08/30 04:09:47;;;;;;;;;;;;;;;20.75;100.00;97615.19;5032973;28;19924;-83
2022/08/30 04:12:13;;;;;;;;;;;;;;;20.78;100.00;97616.72;5036446;28;19971;-82
2022/08/30 04:14:38;;;;;;;;;;;;;;;20.77;100.00;97610.44;5033517;28;19908;-82
2022/08/30 04:17:04;;;;;;;;;;;;;;;20.73;100.00;97610.91;5036128;28;19972;-82
2022/08/30 04:19:29;;;;;;;;;;;;;;;20.76;100.00;97616.91;5052971;28;19923;-82
2022/08/30 04:21:56;;;;;;;;;;;;;;;20.85;100.00;97621.41;5036104;28;19963;-82
2022/08/30 04:24:21;;;;;;;;;;;;;;;20.83;100.00;97620.69;5052997;28;19912;-83
2022/08/30 04:26:46;;;;;;;;;;;;;;;20.77;100.00;97624.03;5035945;28;19909;-83
2022/08/30 04:29:15;;;;;;;;;;;;;;;20.85;100.00;97626.84;5036100;28;20284;-82
2022/08/30 04:31:40;;;;;;;;;;;;;;;20.95;100.00;97624.00;5036265;28;19913;-83
2022/08/30 04:34:07;;;;;;;;;;;;;;;20.98;100.00;97627.25;5052143;28;19913;-82
2022/08/30 04:36:32;;;;;;;;;;;;;;;21.05;100.00;97631.06;5044800;28;19962;-76
2022/08/30 04:38:58;;;;;;;;;;;;;;;21.10;100.00;97638.81;5033965;28;19955;-76
2022/08/30 04:41:23;;;;;;;;;;;;;;;21.14;100.00;97634.72;5036903;28;19919;-76
2022/08/30 04:43:49;;;;;;;;;;;;;;;21.26;100.00;97638.03;5053969;28;19917;-78
2022/08/30 04:46:15;;;;;;;;;;;;;;;21.37;100.00;97630.50;5036979;28;19966;-78
2022/08/30 04:48:40;;;;;;;;;;;;;;;21.41;100.00;97631.03;5037070;28;19921;-77
2022/08/30 04:51:07;;;;;;;;;;;;;;;21.36;100.00;97628.78;5036925;28;19912;-76
2022/08/30 04:53:32;;;;;;;;;;;;;;;21.46;100.00;97628.66;5036674;28;20346;-76
2022/08/30 04:55:58;;;;;;;;;;;;;;;21.48;100.00;97629.34;5036578;28;19916;-76
2022/08/30 04:58:23;;;;;;;;;;;;;;;21.43;100.00;97634.44;5036617;28;20351;-77
2022/08/30 05:00:49;;;;;;;;;;;;;;;21.40;100.00;97638.34;5033668;28;19920;-77
2022/08/30 05:03:16;;;;;;;;;;;;;;;21.36;100.00;97639.66;5037034;28;19990;-77
2022/08/30 05:05:46;;;;;;;;;;;;;;;21.22;100.00;97642.13;5053414;28;19912;-76
2022/08/30 05:08:12;;;;;;;;;;;;;;;21.37;100.00;97646.81;5053442;28;19919;-76
2022/08/30 05:10:38;;;;;;;;;;;;;;;21.40;100.00;97642.91;5036482;28;19934;-77
2022/08/30 05:13:04;;;;;;;;;;;;;;;21.49;100.00;97639.25;5053213;28;20346;-77
2022/08/30 05:15:29;;;;;;;;;;;;;;;21.57;100.00;97637.41;5053003;28;20007;-77
2022/08/30 05:17:54;;;;;;;;;;;;;;;21.62;100.00;97645.13;5053055;28;19969;-76
2022/08/30 05:20:20;;;;;;;;;;;;;;;21.49;100.00;97634.66;5053174;28;20007;-78
2022/08/30 05:22:48;;;;;;;;;;;;;;;21.35;100.00;97642.56;5035536;28;20369;-78
2022/08/30 05:25:18;;;;;;;;;;;;;;;21.41;100.00;97647.38;5053138;28;19912;-77
2022/08/30 05:27:44;;;;;;;;;;;;;;;21.54;100.00;97647.78;5036410;28;19913;-78
2022/08/30 05:30:10;;;;;;;;;;;;;;;21.63;100.00;97644.94;5032902;28;19920;-78
2022/08/30 05:32:35;;;;;;;;;;;;;;;21.71;100.00;97637.84;5035903;28;19916;-77
2022/08/30 05:35:00;;;;;;;;;;;;;;;21.59;100.00;97637.28;5036410;28;19913;-77
2022/08/30 05:37:26;;;;;;;;;;;;;;;21.72;100.00;97640.38;5052664;28;19917;-77
2022/08/30 05:39:52;;;;;;;;;;;;;;;21.77;100.00;97638.03;5035311;28;20003;-77
2022/08/30 05:42:17;;;;;;;;;;;;;;;21.83;100.00;97631.09;5036042;28;19916;-77
2022/08/30 05:44:43;;;;;;;;;;;;;;;21.82;100.00;97630.22;5052618;28;20003;-78
2022/08/30 05:47:08;;;;;;;;;;;;;;;21.75;100.00;97625.63;5032331;28;20364;-78
2022/08/30 05:49:33;;;;;;;;;;;;;;;21.80;100.00;97628.69;5051950;28;20308;-78
2022/08/30 05:51:59;;;;;;;;;;;;;;;21.91;100.00;97615.66;5052522;28;19916;-77
2022/08/30 05:54:24;;;;;;;;;;;;;;;21.98;100.00;97615.88;5035910;28;19917;-77
2022/08/30 05:56:49;;;;;;;;;;;;;;;22.00;100.00;97617.41;5035799;28;20003;-78
2022/08/30 05:59:15;;;;;;;;;;;;;;;22.06;100.00;97616.75;5035957;28;19924;-78
2022/08/30 06:01:41;;;;;;;;;;;;;;;22.03;100.00;97616.22;5036018;28;19960;-78
2022/08/30 06:04:07;;;;;;;;;;;;;;;22.12;100.00;97617.94;5035906;28;19912;-78
2022/08/30 06:06:33;;;;;;;;;;;;;;;22.11;100.00;97619.00;5052406;28;19970;-77
2022/08/30 06:08:59;;;;;;;;;;;;;;;22.33;100.00;97625.69;5051966;28;19959;-76
2022/08/30 06:11:25;;;;;;;;;;;;;;;22.29;100.00;97622.44;5033290;28;19968;-77
2022/08/30 06:13:51;;;;;;;;;;;;;;;22.60;100.00;97619.97;5052183;28;19913;-77
2022/08/30 06:16:18;;;;;;;;;;;;;;;22.78;100.00;97619.84;5052030;28;20459;-77
2022/08/30 06:18:43;;;;;;;;;;;;;;;22.88;100.00;97617.81;5051817;28;19912;-79
2022/08/30 06:21:14;;;;;;;;;;;;;;;22.93;100.00;97618.13;5031993;28;20004;-76
2022/08/30 06:23:40;;;;;;;;;;;;;;;23.04;100.00;97620.53;5035197;28;19912;-77
2022/08/30 06:26:06;;;;;;;;;;;;;;;23.20;100.00;97615.91;5035341;28;19913;-76
2022/08/30 06:28:31;;;;;;;;;;;;;;;23.22;100.00;97615.75;5035372;28;19913;-77
2022/08/30 06:30:57;;;;;;;;;;;;;;;23.17;100.00;97615.41;5033848;28;19913;-77
2022/08/30 06:33:22;;;;;;;;;;;;;;;23.37;100.00;97616.75;5051944;28;19909;-78
2022/08/30 06:35:48;;;;;;;;;;;;;;;23.92;98.49;97619.53;5034761;28;20387;-78
2022/08/30 06:38:13;;;;;;;;;;;;;;;24.36;95.17;97628.09;5035061;28;19960;-76
2022/08/30 06:40:39;;;;;;;;;;;;;;;24.62;92.13;97616.81;5034884;28;19966;-76
2022/08/30 06:43:04;;;;;;;;;;;;;;;24.81;90.22;97627.31;5051633;28;19920;-76
2022/08/30 06:45:29;;;;;;;;;;;;;;;24.70;90.86;97614.88;5032006;28;20309;-76
2022/08/30 06:47:55;;;;;;;;;;;;;;;25.10;90.27;97621.13;5032665;28;19931;-77
2022/08/30 06:50:20;;;;;;;;;;;;;;;25.07;89.41;97621.50;5031588;28;19924;-77
2022/08/30 06:52:46;;;;;;;;;;;;;;;25.30;88.35;97620.41;5051196;28;20439;-77
2022/08/30 06:55:12;;;;;;;;;;;;;;;25.57;85.00;97609.91;5034658;28;19920;-77
2022/08/30 06:57:37;;;;;;;;;;;;;;;25.37;86.61;97601.34;5034390;28;19920;-77
2022/08/30 07:00:04;;;;;;;;;;;;;;;25.43;86.02;97594.28;5050741;28;19962;-77
2022/08/30 07:02:29;;;;;;;;;;;;;;;25.59;85.25;97599.63;5051255;28;19963;-77
2022/08/30 07:04:55;;;;;;;;;;;;;;;26.02;83.35;97601.53;5031887;28;20361;-77
2022/08/30 07:07:20;;;;;;;;;;;;;;;26.12;81.96;97596.56;5031112;28;20019;-78
2022/08/30 07:09:46;;;;;;;;;;;;;;;26.10;81.31;97592.31;5034314;28;19923;-78
2022/08/30 07:12:12;;;;;;;;;;;;;;;26.20;81.15;97593.78;5034239;28;19919;-78
2022/08/30 07:14:38;;;;;;;;;;;;;;;26.13;80.10;97595.53;5050936;28;19909;-78
2022/08/30 07:18:49;;;;;;;;;;;;;;;26.51;77.82;97598.16;5051023;28;19999;-78
2022/08/30 07:19:52;;;;;;;;;;;;;;;26.71;76.82;97593.72;5044950;28;19920;-77
2022/08/30 07:22:17;;;;;;;;;;;;;;;27.04;74.17;97589.44;5050776;28;19917;-78
2022/08/30 07:24:42;;;;;;;;;;;;;;;26.90;73.84;97588.47;5033459;28;19920;-78
2022/08/30 07:27:08;;;;;;;;;;;;;;;27.45;72.57;97592.34;5030997;28;19912;-78
2022/08/30 07:29:33;;;;;;;;;;;;;;;27.67;70.86;97585.75;5033892;28;21997;-78
2022/08/30 07:31:59;;;;;;;;;;;;;;;27.65;70.66;97598.00;5033961;28;19966;-78
2022/08/30 07:34:24;;;;;;;;;;;;;;;27.45;71.69;97598.69;5033936;28;19917;-78
2022/08/30 07:36:49;;;;;;;;;;;;;;;27.45;71.34;97597.84;5034125;28;19924;-77
2022/08/30 07:39:15;;;;;;;;;;;;;;;27.59;71.48;97604.31;5050357;28;19923;-77
2022/08/30 07:41:40;;;;;;;;;;;;;;;27.19;72.30;97594.88;5050213;28;19986;-79
2022/08/30 07:44:06;;;;;;;;;;;;;;;26.84;72.21;97596.63;5050317;28;19963;-78
2022/08/30 07:46:32;;;;;;;;;;;;;;;26.20;73.30;97598.41;5050108;28;19962;-79
2022/08/30 07:48:58;;;;;;;;;;;;;;;26.17;73.84;97598.78;5033855;28;19920;-77
2022/08/30 07:51:24;;;;;;;;;;;;;;;26.02;73.99;97595.19;5033508;28;19913;-77
2022/08/30 07:53:50;;;;;;;;;;;;;;;25.94;75.62;97596.13;5033169;28;19932;-77
2022/08/30 07:56:15;;;;;;;;;;;;;;;25.76;77.00;97603.88;5030271;28;19921;-75
2022/08/30 07:58:41;;;;;;;;;;;;;;;25.85;77.65;97606.34;5050780;28;20304;-77
2022/08/30 08:01:07;;;;;;;;;;;;;;;25.68;78.11;97598.50;5033531;28;20307;-78
2022/08/30 08:03:32;;;;;;;;;;;;;;;25.50;78.65;97589.78;5049857;28;19991;-78
2022/08/30 08:05:59;;;;;;;;;;;;;;;25.33;79.22;97595.38;5030240;28;19913;-77
2022/08/30 08:08:24;;;;;;;;;;;;;;;25.49;79.67;97596.28;5033370;28;19932;-77
2022/08/30 08:10:50;;;;;;;;;;;;;;;25.55;80.05;97606.50;5031515;28;19917;-78
2022/08/30 08:13:15;;;;;;;;;;;;;;;25.54;79.89;97605.66;5033416;28;20300;-79
2022/08/30 08:15:41;;;;;;;;;;;;;;;25.69;78.76;97606.50;5049838;28;19951;-78
2022/08/30 08:18:06;;;;;;;;;;;;;;;25.67;78.18;97605.00;5033050;28;20003;-78
2022/08/30 08:20:32;;;;;;;;;;;;;;;25.83;77.07;97596.59;5049793;28;19991;-78
2022/08/30 08:22:57;;;;;;;;;;;;;;;25.95;76.46;97600.56;5032895;28;19967;-78
2022/08/30 08:25:23;;;;;;;;;;;;;;;25.83;76.77;97600.19;5049854;28;19974;-78
2022/08/30 08:27:49;;;;;;;;;;;;;;;25.91;76.75;97599.22;5032699;28;19912;-75
2022/08/30 08:30:15;;;;;;;;;;;;;;;26.07;76.13;97599.03;5033133;28;20411;-76
2022/08/30 08:32:41;;;;;;;;;;;;;;;26.07;75.85;97603.66;5033140;28;19912;-76
2022/08/30 08:35:06;;;;;;;;;;;;;;;26.07;76.43;97588.06;5032898;28;19912;-76
2022/08/30 08:37:31;;;;;;;;;;;;;;;26.17;75.81;97602.38;5029989;28;19924;-77
2022/08/30 08:39:57;;;;;;;;;;;;;;;26.00;76.61;97598.09;5030600;28;19952;-77
2022/08/30 08:42:26;;;;;;;;;;;;;;;26.05;76.25;97601.13;5033017;28;20304;-78
2022/08/30 08:44:51;;;;;;;;;;;;;;;26.04;75.80;97599.41;5049364;28;19920;-77
2022/08/30 08:47:16;;;;;;;;;;;;;;;26.08;75.84;97598.00;5049502;28;20321;-78
2022/08/30 08:49:43;;;;;;;;;;;;;;;26.05;75.65;97601.13;5049353;28;19916;-77
2022/08/30 08:54:57;;;;;;;;;;;;;;;26.21;74.35;97606.41;5050005;28;20439;-77
2022/08/30 08:57:23;;;;;;;;;;;;;;;26.30;74.50;97605.28;5032960;28;20407;-77
2022/08/30 08:59:52;;;;;;;;;;;;;;;26.37;73.37;97597.97;5049519;28;19913;-77
2022/08/30 09:02:28;;;;;;;;;;;;;;;26.46;73.06;97603.34;5049517;28;20296;-77
2022/08/30 09:04:58;;;;;;;;;;;;;;;26.58;72.50;97593.59;5033028;28;19948;-78
2022/08/30 09:07:25;;;;;;;;;;;;;;;26.95;71.98;97592.53;5049642;28;19959;-77
2022/08/30 09:09:51;;;;;;;;;;;;;;;26.89;71.12;97594.13;5032749;28;19923;-77
2022/08/30 09:12:16;;;;;;;;;;;;;;;26.85;69.72;97588.22;5032681;28;19921;-76
2022/08/30 09:14:52;;;;;;;;;;;;;;;26.91;69.38;97592.06;5032807;28;20383;-77
2022/08/30 09:17:18;;;;;;;;;;;;;;;27.27;68.05;97583.72;5032498;28;20051;-78
2022/08/30 09:20:03;;;;;;;;;;;;;;;27.74;67.37;97588.53;5049629;28;19944;-78
2022/08/30 09:22:32;;;;;;;;;;;;;;;28.24;64.84;97584.63;5050839;28;19940;-78
2022/08/30 09:25:05;;;;;;;;;;;;;;;28.60;63.87;97596.19;5052935;28;20395;-79
2022/08/30 09:27:32;;;;;;;;;;;;;;;28.92;62.89;97589.06;5033325;28;20432;-79
2022/08/30 09:29:59;;;;;;;;;;;;;;;29.72;60.49;97577.88;5053070;28;19917;-77
2022/08/30 09:32:29;;;;;;;;;;;;;;;29.68;59.84;97579.38;5036304;28;19920;-78
2022/08/30 09:34:54;;;;;;;;;;;;;;;29.76;59.90;97573.63;5036080;28;20034;-78
2022/08/30 09:37:39;;;;;;;;;;;;;;;29.37;60.37;97582.81;5036208;28;19951;-79
2022/08/30 09:40:16;;;;;;;;;;;;;;;29.62;59.50;97573.88;5050875;28;19923;-79
2022/08/30 09:42:41;;;;;;;;;;;;;;;29.73;59.11;97574.06;5032202;28;19945;-78
2022/08/30 09:45:10;;;;;;;;;;;;;;;29.78;57.95;97567.91;5050012;28;19920;-79
2022/08/30 09:47:37;;;;;;;;;;;;;;;29.72;57.51;97564.09;5033661;28;19962;-79
2022/08/30 09:50:16;;;;;;;;;;;;;;;29.62;58.61;97571.97;5050096;28;19916;-78
2022/08/30 09:52:54;;;;;;;;;;;;;;;29.61;59.07;97574.94;5069026;28;19913;-80
2022/08/30 09:55:26;;;;;;;;;;;;;;;29.26;59.59;97582.56;5051394;28;19913;-78
2022/08/30 09:57:58;;;;;;;;;;;;;;;28.83;60.56;97574.66;5035693;28;19916;-78
2022/08/30 10:00:27;;;;;;;;;;;;;;;28.87;60.43;97583.34;5052226;28;20007;-79
2022/08/30 10:02:59;;;;;;;;;;;;;;;28.72;60.92;97572.53;5052296;28;19919;-78
2022/08/30 10:05:31;;;;;;;;;;;;;;;28.52;61.48;97577.94;5052194;28;19912;-78
2022/08/30 10:07:59;;;;;;;;;;;;;;;28.29;63.47;97582.94;5035716;28;19916;-78
2022/08/30 10:10:28;;;;;;;;;;;;;;;28.01;65.09;97587.66;5051908;28;20345;-79
2022/08/30 10:13:00;;;;;;;;;;;;;;;27.78;66.41;97592.59;5052147;28;20399;-78
2022/08/30 10:15:33;;;;;;;;;;;;;;;27.53;67.48;97589.47;5053476;28;19912;-78
2022/08/30 10:18:01;;;;;;;;;;;;;;;27.30;69.40;97595.16;5035458;28;19920;-78
2022/08/30 10:20:30;;;;;;;;;;;;;;;27.24;72.09;97595.97;5053319;28;20418;-78
2022/08/30 10:23:01;;;;;;;;;;;;;;;26.95;76.58;97598.03;5034053;28;20298;-79
2022/08/30 10:25:26;;;;;;;;;;;;;;;26.58;80.00;97599.91;5035019;28;19924;-79
2022/08/30 10:28:01;;;;;;;;;;;;;;;26.33;84.93;97599.41;5053269;28;20296;-79
2022/08/30 10:30:27;;;;;;;;;;;;;;;26.02;86.27;97590.56;5033483;28;19916;-79
2022/08/30 10:32:54;;;;;;;;;;;;;;;25.76;91.92;97596.50;5051851;28;20007;-79
2022/08/30 10:35:24;;;;;;;;;;;;;;;25.62;92.96;97596.50;5034786;28;20423;-77
2022/08/30 10:38:04;;;;;;;;;;;;;;;25.52;93.66;97598.66;5051568;28;20047;-77
2022/08/30 10:43:24;;;;;;;;;;;;;;;24.88;100.00;97614.63;5051960;28;19966;-78
2022/08/30 10:45:50;;;;;;;;;;;;;;;24.71;100.00;97616.56;5034510;28;20031;-79
2022/08/30 10:48:18;;;;;;;;;;;;;;;24.49;100.00;97627.47;5034691;28;19963;-78
2022/08/30 10:50:45;;;;;;;;;;;;;;;24.37;100.00;97628.91;5051100;28;19909;-78
2022/08/30 10:53:22;;;;;;;;;;;;;;;24.23;100.00;97634.13;5034737;28;20422;-78
2022/08/30 10:55:49;;;;;;;;;;;;;;;24.18;100.00;97636.53;5034457;28;19944;-78
2022/08/30 10:58:14;;;;;;;;;;;;;;;24.10;100.00;97628.34;5034516;28;19916;-78
2022/08/30 11:00:39;;;;;;;;;;;;;;;23.53;100.00;97618.63;5051053;28;20280;-78
2022/08/30 11:03:25;;;;;;;;;;;;;;;23.27;100.00;97628.88;5050989;28;20408;-77
2022/08/30 11:05:53;;;;;;;;;;;;;;;23.05;100.00;97628.53;5020330;28;19913;-78
2022/08/30 11:08:28;;;;;;;;;;;;;;;22.81;100.00;97631.28;5045698;28;19942;-76
2022/08/30 11:11:05;;;;;;;;;;;;;;;22.51;100.00;97631.88;5050396;28;19920;-79
2022/08/30 11:13:31;;;;;;;;;;;;;;;22.64;100.00;97634.97;5050827;28;19916;-77
2022/08/30 11:16:14;;;;;;;;;;;;;;;22.80;100.00;97632.28;5034159;28;20007;-78
2022/08/30 11:18:45;;;;;;;;;;;;;;;22.78;100.00;97639.78;5034474;28;19923;-78
2022/08/30 11:21:17;;;;;;;;;;;;;;;22.86;100.00;97637.06;5052252;28;19912;-77
2022/08/30 11:23:56;;;;;;;;;;;;;;;22.95;100.00;97635.22;5050327;28;19913;-78
2022/08/30 11:26:40;;;;;;;;;;;;;;;22.96;100.00;97637.75;5033980;28;19921;-78
2022/08/30 11:29:05;;;;;;;;;;;;;;;22.92;100.00;97641.84;5050563;28;19912;-78
2022/08/30 11:31:35;;;;;;;;;;;;;;;22.76;100.00;97641.84;5033782;28;20399;-77
2022/08/30 11:34:00;;;;;;;;;;;;;;;22.76;100.00;97643.72;5033525;28;19916;-77
2022/08/30 11:36:29;;;;;;;;;;;;;;;22.68;100.00;97637.22;5033781;28;19974;-78
2022/08/30 11:38:54;;;;;;;;;;;;;;;22.63;100.00;97636.00;5051642;28;20007;-77
2022/08/30 11:41:31;;;;;;;;;;;;;;;22.58;100.00;97643.78;5050365;28;19952;-77
2022/08/30 11:44:11;;;;;;;;;;;;;;;22.62;100.00;97646.03;5050088;28;20414;-78
2022/08/30 11:46:37;;;;;;;;;;;;;;;22.74;100.00;97643.00;5033491;28;19916;-77
2022/08/30 11:49:29;;;;;;;;;;;;;;;22.79;100.00;97638.78;5033194;28;20439;-77
2022/08/30 11:52:00;;;;;;;;;;;;;;;22.94;100.00;97637.09;5048211;28;19962;-78
2022/08/30 11:54:34;;;;;;;;;;;;;;;22.97;100.00;97641.34;5030101;28;19919;-77
2022/08/30 11:56:59;;;;;;;;;;;;;;;23.23;100.00;97629.22;5032055;28;19924;-77
2022/08/30 11:59:51;;;;;;;;;;;;;;;23.64;100.00;97638.25;5051383;28;19913;-78
2022/08/30 12:02:42;;;;;;;;;;;;;;;24.05;100.00;97628.03;5035338;28;19920;-78
2022/08/30 12:05:07;;;;;;;;;;;;;;;24.47;100.00;97618.63;5046564;28;19917;-78
2022/08/30 12:07:59;;;;;;;;;;;;;;;25.07;100.00;97622.31;5049925;28;19920;-79
2022/08/30 12:10:54;;;;;;;;;;;;;;;25.45;100.00;97612.22;5048838;28;20309;-79
2022/08/30 12:13:38;;;;;;;;;;;;;;;26.26;94.72;97603.97;5036849;28;19912;-79
2022/08/30 12:16:06;;;;;;;;;;;;;;;26.42;91.81;97597.41;5044703;28;20007;-76
2022/08/30 12:18:38;;;;;;;;;;;;;;;26.74;91.20;97591.44;5047005;28;20319;-83
2022/08/30 12:21:23;;;;;;;;;;;;;;;27.41;87.08;97586.38;5048846;28;19960;-78
2022/08/30 12:23:52;;;;;;;;;;;;;;;28.19;82.16;97587.97;5047940;28;19927;-83
2022/08/30 12:26:23;;;;;;;;;;;;;;;28.90;77.59;97580.19;5044686;28;19912;-81
2022/08/30 12:28:50;;;;;;;;;;;;;;;29.11;73.23;97568.97;5048289;28;20254;-81
2022/08/30 12:31:22;;;;;;;;;;;;;;;28.49;75.32;97564.59;5030644;28;20365;-78
2022/08/30 12:33:49;;;;;;;;;;;;;;;29.06;75.25;97563.25;5048812;28;20308;-81
2022/08/30 12:36:23;;;;;;;;;;;;;;;29.00;72.73;97547.56;5050080;28;19999;-81
2022/08/30 12:38:50;;;;;;;;;;;;;;;29.10;72.71;97553.53;5032998;28;19917;-82
2022/08/30 12:41:17;;;;;;;;;;;;;;;28.84;73.02;97535.06;5033370;28;19921;-82
2022/08/30 12:43:47;;;;;;;;;;;;;;;28.58;73.03;97534.13;5033186;28;19928;-82
2022/08/30 12:46:12;;;;;;;;;;;;;;;28.48;72.71;97527.13;5032008;28;20316;-82
2022/08/30 12:48:38;;;;;;;;;;;;;;;28.93;73.94;97530.19;5033227;28;19913;-82